sensor_id;sensor_type;location;lat;lon;timestamp;P1;durP1;ratioP1;P2;durP2;ratioP2
61960;SDS011;47923;42.506;24.192;2023-03-11T00:01:57;33.20;;;21.50;;
61960;SDS011;47923;42.506;24.192;2023-03-11T00:04:23;20.08;;;11.15;;
61960;SDS011;47923;42.506;24.192;2023-03-11T00:06:48;19.85;;;10.18;;
61960;SDS011;47923;42.506;24.192;2023-03-11T00:09:14;15.25;;;8.45;;
61960;SDS011;47923;42.506;24.192;2023-03-11T00:11:40;14.85;;;9.38;;
61960;SDS011;47923;42.506;24.192;2023-03-11T00:14:05;14.38;;;8.70;;
61960;SDS011;47923;42.506;24.192;2023-03-11T00:16:31;19.08;;;10.38;;
61960;SDS011;47923;42.506;24.192;2023-03-11T00:18:56;26.27;;;15.77;;
61960;SDS011;47923;42.506;24.192;2023-03-11T00:21:22;24.25;;;14.52;;
61960;SDS011;47923;42.506;24.192;2023-03-11T00:23:48;24.48;;;15.27;;
61960;SDS011;47923;42.506;24.192;2023-03-11T00:26:13;25.33;;;16.77;;
61960;SDS011;47923;42.506;24.192;2023-03-11T00:28:39;20.42;;;12.65;;
61960;SDS011;47923;42.506;24.192;2023-03-11T00:31:04;17.08;;;10.73;;
61960;SDS011;47923;42.506;24.192;2023-03-11T00:33:30;19.73;;;9.52;;
61960;SDS011;47923;42.506;24.192;2023-03-11T00:35:55;14.95;;;9.07;;
61960;SDS011;47923;42.506;24.192;2023-03-11T00:38:21;14.63;;;8.27;;
61960;SDS011;47923;42.506;24.192;2023-03-11T00:40:47;16.48;;;9.02;;
61960;SDS011;47923;42.506;24.192;2023-03-11T00:43:13;16.75;;;9.32;;
61960;SDS011;47923;42.506;24.192;2023-03-11T00:45:39;15.23;;;8.68;;
61960;SDS011;47923;42.506;24.192;2023-03-11T00:48:04;13.30;;;7.75;;
61960;SDS011;47923;42.506;24.192;2023-03-11T00:50:31;18.90;;;9.57;;
61960;SDS011;47923;42.506;24.192;2023-03-11T00:52:59;24.48;;;15.85;;
61960;SDS011;47923;42.506;24.192;2023-03-11T00:55:26;23.67;;;14.75;;
61960;SDS011;47923;42.506;24.192;2023-03-11T00:57:53;25.02;;;16.80;;
61960;SDS011;47923;42.506;24.192;2023-03-11T01:00:22;27.75;;;16.90;;
61960;SDS011;47923;42.506;24.192;2023-03-11T01:02:48;21.67;;;14.30;;
61960;SDS011;47923;42.506;24.192;2023-03-11T01:05:14;25.63;;;15.43;;
61960;SDS011;47923;42.506;24.192;2023-03-11T01:07:41;21.33;;;12.70;;
61960;SDS011;47923;42.506;24.192;2023-03-11T01:10:07;18.13;;;10.68;;
61960;SDS011;47923;42.506;24.192;2023-03-11T01:12:34;16.88;;;10.55;;
61960;SDS011;47923;42.506;24.192;2023-03-11T01:14:59;15.25;;;9.02;;
61960;SDS011;47923;42.506;24.192;2023-03-11T01:17:25;17.20;;;9.63;;
61960;SDS011;47923;42.506;24.192;2023-03-11T01:19:50;33.75;;;19.13;;
61960;SDS011;47923;42.506;24.192;2023-03-11T01:22:16;29.35;;;18.40;;
61960;SDS011;47923;42.506;24.192;2023-03-11T01:24:42;24.80;;;15.05;;
61960;SDS011;47923;42.506;24.192;2023-03-11T01:27:07;27.45;;;16.85;;
61960;SDS011;47923;42.506;24.192;2023-03-11T01:29:33;31.23;;;18.30;;
61960;SDS011;47923;42.506;24.192;2023-03-11T01:31:58;24.73;;;17.90;;
61960;SDS011;47923;42.506;24.192;2023-03-11T01:34:24;28.33;;;16.75;;
61960;SDS011;47923;42.506;24.192;2023-03-11T01:36:49;28.10;;;18.08;;
61960;SDS011;47923;42.506;24.192;2023-03-11T01:39:15;27.20;;;17.70;;
61960;SDS011;47923;42.506;24.192;2023-03-11T01:41:40;24.45;;;17.48;;
61960;SDS011;47923;42.506;24.192;2023-03-11T01:44:06;43.35;;;26.02;;
61960;SDS011;47923;42.506;24.192;2023-03-11T01:49:15;43.13;;;30.20;;
61960;SDS011;47923;42.506;24.192;2023-03-11T01:51:42;35.35;;;25.85;;
61960;SDS011;47923;42.506;24.192;2023-03-11T01:54:13;31.80;;;21.55;;
61960;SDS011;47923;42.506;24.192;2023-03-11T01:56:43;35.53;;;22.42;;
61960;SDS011;47923;42.506;24.192;2023-03-11T01:59:10;41.03;;;35.55;;
61960;SDS011;47923;42.506;24.192;2023-03-11T02:02:04;31.75;;;21.25;;
61960;SDS011;47923;42.506;24.192;2023-03-11T02:04:40;19.90;;;13.38;;
61960;SDS011;47923;42.506;24.192;2023-03-11T02:07:06;27.30;;;16.50;;
61960;SDS011;47923;42.506;24.192;2023-03-11T02:09:34;43.25;;;27.38;;
61960;SDS011;47923;42.506;24.192;2023-03-11T02:12:00;28.48;;;15.80;;
61960;SDS011;47923;42.506;24.192;2023-03-11T02:14:27;32.63;;;18.30;;
61960;SDS011;47923;42.506;24.192;2023-03-11T02:16:55;28.95;;;17.67;;
61960;SDS011;47923;42.506;24.192;2023-03-11T02:21:50;18.15;;;11.10;;
61960;SDS011;47923;42.506;24.192;2023-03-11T02:24:25;20.90;;;11.98;;
61960;SDS011;47923;42.506;24.192;2023-03-11T02:27:05;23.10;;;13.55;;
61960;SDS011;47923;42.506;24.192;2023-03-11T02:29:32;22.17;;;12.43;;
61960;SDS011;47923;42.506;24.192;2023-03-11T02:31:59;17.13;;;10.75;;
61960;SDS011;47923;42.506;24.192;2023-03-11T02:34:28;18.75;;;9.95;;
61960;SDS011;47923;42.506;24.192;2023-03-11T02:36:56;16.23;;;9.85;;
61960;SDS011;47923;42.506;24.192;2023-03-11T02:39:30;13.63;;;8.50;;
61960;SDS011;47923;42.506;24.192;2023-03-11T02:41:56;13.52;;;7.50;;
61960;SDS011;47923;42.506;24.192;2023-03-11T02:44:23;11.75;;;7.63;;
61960;SDS011;47923;42.506;24.192;2023-03-11T02:46:49;17.83;;;10.32;;
61960;SDS011;47923;42.506;24.192;2023-03-11T02:49:16;17.92;;;11.43;;
61960;SDS011;47923;42.506;24.192;2023-03-11T02:51:43;16.50;;;10.77;;
61960;SDS011;47923;42.506;24.192;2023-03-11T02:54:09;17.83;;;11.82;;
61960;SDS011;47923;42.506;24.192;2023-03-11T02:56:34;15.77;;;10.85;;
61960;SDS011;47923;42.506;24.192;2023-03-11T02:59:00;15.50;;;10.52;;
61960;SDS011;47923;42.506;24.192;2023-03-11T03:01:25;16.55;;;10.60;;
61960;SDS011;47923;42.506;24.192;2023-03-11T03:03:51;14.40;;;10.13;;
61960;SDS011;47923;42.506;24.192;2023-03-11T03:06:16;15.23;;;10.95;;
61960;SDS011;47923;42.506;24.192;2023-03-11T03:08:42;15.40;;;10.88;;
61960;SDS011;47923;42.506;24.192;2023-03-11T03:11:07;16.15;;;11.48;;
61960;SDS011;47923;42.506;24.192;2023-03-11T03:13:33;17.17;;;11.15;;
61960;SDS011;47923;42.506;24.192;2023-03-11T03:16:00;16.08;;;11.68;;
61960;SDS011;47923;42.506;24.192;2023-03-11T03:18:26;14.00;;;10.27;;
61960;SDS011;47923;42.506;24.192;2023-03-11T03:20:51;16.55;;;11.55;;
61960;SDS011;47923;42.506;24.192;2023-03-11T03:23:17;18.60;;;11.82;;
61960;SDS011;47923;42.506;24.192;2023-03-11T03:25:44;16.27;;;10.60;;
61960;SDS011;47923;42.506;24.192;2023-03-11T03:28:11;21.08;;;14.93;;
61960;SDS011;47923;42.506;24.192;2023-03-11T03:30:37;24.42;;;17.35;;
61960;SDS011;47923;42.506;24.192;2023-03-11T03:33:03;27.73;;;18.50;;
61960;SDS011;47923;42.506;24.192;2023-03-11T03:35:30;23.67;;;14.95;;
61960;SDS011;47923;42.506;24.192;2023-03-11T03:37:55;21.98;;;15.73;;
61960;SDS011;47923;42.506;24.192;2023-03-11T03:40:21;22.42;;;11.48;;
61960;SDS011;47923;42.506;24.192;2023-03-11T03:42:47;15.30;;;9.23;;
61960;SDS011;47923;42.506;24.192;2023-03-11T03:45:12;18.65;;;8.90;;
61960;SDS011;47923;42.506;24.192;2023-03-11T03:47:38;18.33;;;11.60;;
61960;SDS011;47923;42.506;24.192;2023-03-11T03:50:04;17.08;;;9.93;;
61960;SDS011;47923;42.506;24.192;2023-03-11T03:52:31;15.13;;;8.80;;
61960;SDS011;47923;42.506;24.192;2023-03-11T03:54:59;16.88;;;9.95;;
61960;SDS011;47923;42.506;24.192;2023-03-11T03:57:24;46.47;;;32.30;;
61960;SDS011;47923;42.506;24.192;2023-03-11T03:59:50;49.08;;;36.28;;
61960;SDS011;47923;42.506;24.192;2023-03-11T04:02:15;28.75;;;21.38;;
61960;SDS011;47923;42.506;24.192;2023-03-11T04:04:41;25.90;;;17.27;;
61960;SDS011;47923;42.506;24.192;2023-03-11T04:07:06;22.10;;;14.13;;
61960;SDS011;47923;42.506;24.192;2023-03-11T04:09:32;20.45;;;12.90;;
61960;SDS011;47923;42.506;24.192;2023-03-11T04:11:57;13.25;;;9.05;;
61960;SDS011;47923;42.506;24.192;2023-03-11T04:14:24;8.30;;;4.68;;
61960;SDS011;47923;42.506;24.192;2023-03-11T04:16:49;6.45;;;3.03;;
61960;SDS011;47923;42.506;24.192;2023-03-11T04:19:15;5.53;;;2.60;;
61960;SDS011;47923;42.506;24.192;2023-03-11T04:21:41;6.07;;;2.70;;
61960;SDS011;47923;42.506;24.192;2023-03-11T04:24:07;5.47;;;2.47;;
61960;SDS011;47923;42.506;24.192;2023-03-11T04:26:33;3.70;;;2.15;;
61960;SDS011;47923;42.506;24.192;2023-03-11T04:28:58;6.63;;;2.78;;
61960;SDS011;47923;42.506;24.192;2023-03-11T04:31:24;8.02;;;2.55;;
61960;SDS011;47923;42.506;24.192;2023-03-11T04:33:49;9.10;;;2.95;;
61960;SDS011;47923;42.506;24.192;2023-03-11T04:36:15;6.32;;;2.88;;
61960;SDS011;47923;42.506;24.192;2023-03-11T04:38:40;5.80;;;2.88;;
61960;SDS011;47923;42.506;24.192;2023-03-11T04:41:06;6.95;;;2.85;;
61960;SDS011;47923;42.506;24.192;2023-03-11T04:43:32;7.68;;;4.20;;
61960;SDS011;47923;42.506;24.192;2023-03-11T04:45:58;9.23;;;4.82;;
61960;SDS011;47923;42.506;24.192;2023-03-11T04:48:23;13.50;;;5.88;;
61960;SDS011;47923;42.506;24.192;2023-03-11T04:50:51;8.77;;;4.93;;
61960;SDS011;47923;42.506;24.192;2023-03-11T04:53:17;14.13;;;7.30;;
61960;SDS011;47923;42.506;24.192;2023-03-11T04:55:42;20.70;;;14.77;;
61960;SDS011;47923;42.506;24.192;2023-03-11T04:58:08;19.55;;;10.95;;
61960;SDS011;47923;42.506;24.192;2023-03-11T05:00:33;19.50;;;10.05;;
61960;SDS011;47923;42.506;24.192;2023-03-11T05:02:58;28.67;;;15.63;;
61960;SDS011;47923;42.506;24.192;2023-03-11T05:05:24;16.80;;;8.20;;
61960;SDS011;47923;42.506;24.192;2023-03-11T05:07:49;17.58;;;8.88;;
61960;SDS011;47923;42.506;24.192;2023-03-11T05:10:15;11.25;;;6.47;;
61960;SDS011;47923;42.506;24.192;2023-03-11T05:12:49;8.75;;;4.45;;
61960;SDS011;47923;42.506;24.192;2023-03-11T05:15:15;10.07;;;6.95;;
61960;SDS011;47923;42.506;24.192;2023-03-11T05:17:41;12.30;;;7.60;;
61960;SDS011;47923;42.506;24.192;2023-03-11T05:20:07;13.20;;;8.57;;
61960;SDS011;47923;42.506;24.192;2023-03-11T05:22:33;15.73;;;9.20;;
61960;SDS011;47923;42.506;24.192;2023-03-11T05:24:59;19.63;;;10.38;;
61960;SDS011;47923;42.506;24.192;2023-03-11T05:27:24;20.23;;;11.13;;
61960;SDS011;47923;42.506;24.192;2023-03-11T05:29:50;20.67;;;11.20;;
61960;SDS011;47923;42.506;24.192;2023-03-11T05:32:15;16.00;;;10.32;;
61960;SDS011;47923;42.506;24.192;2023-03-11T05:34:41;15.48;;;9.98;;
61960;SDS011;47923;42.506;24.192;2023-03-11T05:37:06;15.88;;;9.20;;
61960;SDS011;47923;42.506;24.192;2023-03-11T05:39:32;17.48;;;10.35;;
61960;SDS011;47923;42.506;24.192;2023-03-11T05:41:58;14.57;;;9.73;;
61960;SDS011;47923;42.506;24.192;2023-03-11T05:44:23;16.10;;;10.73;;
61960;SDS011;47923;42.506;24.192;2023-03-11T05:46:49;17.25;;;10.80;;
61960;SDS011;47923;42.506;24.192;2023-03-11T05:49:15;17.00;;;11.80;;
61960;SDS011;47923;42.506;24.192;2023-03-11T05:51:40;18.25;;;13.18;;
61960;SDS011;47923;42.506;24.192;2023-03-11T05:54:06;20.42;;;14.25;;
61960;SDS011;47923;42.506;24.192;2023-03-11T05:56:39;38.90;;;28.38;;
61960;SDS011;47923;42.506;24.192;2023-03-11T05:59:05;18.05;;;11.90;;
61960;SDS011;47923;42.506;24.192;2023-03-11T06:01:31;13.02;;;7.10;;
61960;SDS011;47923;42.506;24.192;2023-03-11T06:03:57;20.40;;;14.15;;
61960;SDS011;47923;42.506;24.192;2023-03-11T06:06:22;17.25;;;11.82;;
61960;SDS011;47923;42.506;24.192;2023-03-11T06:08:48;10.20;;;5.18;;
61960;SDS011;47923;42.506;24.192;2023-03-11T06:11:13;12.15;;;7.53;;
61960;SDS011;47923;42.506;24.192;2023-03-11T06:13:39;12.57;;;6.75;;
61960;SDS011;47923;42.506;24.192;2023-03-11T06:16:05;9.63;;;5.47;;
61960;SDS011;47923;42.506;24.192;2023-03-11T06:18:31;6.55;;;3.53;;
61960;SDS011;47923;42.506;24.192;2023-03-11T06:20:57;6.82;;;3.15;;
61960;SDS011;47923;42.506;24.192;2023-03-11T06:23:23;6.28;;;2.92;;
61960;SDS011;47923;42.506;24.192;2023-03-11T06:25:59;5.50;;;2.40;;
61960;SDS011;47923;42.506;24.192;2023-03-11T06:28:26;5.30;;;2.40;;
61960;SDS011;47923;42.506;24.192;2023-03-11T06:30:52;5.18;;;2.58;;
61960;SDS011;47923;42.506;24.192;2023-03-11T06:33:23;7.28;;;3.03;;
61960;SDS011;47923;42.506;24.192;2023-03-11T06:35:56;6.65;;;2.67;;
61960;SDS011;47923;42.506;24.192;2023-03-11T06:38:22;3.67;;;2.00;;
61960;SDS011;47923;42.506;24.192;2023-03-11T06:40:47;5.13;;;2.50;;
61960;SDS011;47923;42.506;24.192;2023-03-11T06:43:13;8.23;;;3.47;;
61960;SDS011;47923;42.506;24.192;2023-03-11T06:45:38;4.88;;;2.33;;
61960;SDS011;47923;42.506;24.192;2023-03-11T06:48:04;5.20;;;1.75;;
61960;SDS011;47923;42.506;24.192;2023-03-11T06:50:29;8.63;;;4.10;;
61960;SDS011;47923;42.506;24.192;2023-03-11T06:52:55;8.48;;;3.90;;
61960;SDS011;47923;42.506;24.192;2023-03-11T06:55:21;7.28;;;2.95;;
61960;SDS011;47923;42.506;24.192;2023-03-11T06:57:47;6.78;;;2.70;;
61960;SDS011;47923;42.506;24.192;2023-03-11T07:00:12;3.90;;;2.15;;
61960;SDS011;47923;42.506;24.192;2023-03-11T07:02:38;3.88;;;1.33;;
61960;SDS011;47923;42.506;24.192;2023-03-11T07:05:04;5.10;;;2.45;;
61960;SDS011;47923;42.506;24.192;2023-03-11T07:07:29;5.07;;;1.70;;
61960;SDS011;47923;42.506;24.192;2023-03-11T07:09:55;2.35;;;1.17;;
61960;SDS011;47923;42.506;24.192;2023-03-11T07:12:22;3.67;;;1.50;;
61960;SDS011;47923;42.506;24.192;2023-03-11T07:14:53;3.03;;;1.45;;
61960;SDS011;47923;42.506;24.192;2023-03-11T07:17:22;7.28;;;2.30;;
61960;SDS011;47923;42.506;24.192;2023-03-11T07:19:48;11.43;;;2.78;;
61960;SDS011;47923;42.506;24.192;2023-03-11T07:22:14;10.23;;;5.13;;
61960;SDS011;47923;42.506;24.192;2023-03-11T07:24:40;15.18;;;4.72;;
61960;SDS011;47923;42.506;24.192;2023-03-11T07:27:05;8.48;;;3.95;;
61960;SDS011;47923;42.506;24.192;2023-03-11T07:29:31;5.35;;;2.25;;
61960;SDS011;47923;42.506;24.192;2023-03-11T07:31:57;6.28;;;2.20;;
61960;SDS011;47923;42.506;24.192;2023-03-11T07:34:22;16.42;;;3.40;;
61960;SDS011;47923;42.506;24.192;2023-03-11T07:36:47;6.32;;;2.47;;
61960;SDS011;47923;42.506;24.192;2023-03-11T07:39:14;10.82;;;2.83;;
61960;SDS011;47923;42.506;24.192;2023-03-11T07:41:41;6.00;;;2.33;;
61960;SDS011;47923;42.506;24.192;2023-03-11T07:44:07;4.43;;;1.10;;
61960;SDS011;47923;42.506;24.192;2023-03-11T07:46:35;4.38;;;1.38;;
61960;SDS011;47923;42.506;24.192;2023-03-11T07:49:01;5.53;;;1.05;;
61960;SDS011;47923;42.506;24.192;2023-03-11T07:51:28;2.58;;;1.20;;
61960;SDS011;47923;42.506;24.192;2023-03-11T07:53:56;7.05;;;2.90;;
61960;SDS011;47923;42.506;24.192;2023-03-11T07:56:23;14.77;;;2.20;;
61960;SDS011;47923;42.506;24.192;2023-03-11T07:58:50;9.05;;;3.03;;
61960;SDS011;47923;42.506;24.192;2023-03-11T08:01:17;4.65;;;0.80;;
61960;SDS011;47923;42.506;24.192;2023-03-11T08:03:45;3.30;;;1.35;;
61960;SDS011;47923;42.506;24.192;2023-03-11T08:06:12;2.03;;;0.77;;
61960;SDS011;47923;42.506;24.192;2023-03-11T08:11:11;12.75;;;1.60;;
61960;SDS011;47923;42.506;24.192;2023-03-11T08:13:37;8.88;;;1.80;;
61960;SDS011;47923;42.506;24.192;2023-03-11T08:16:04;8.02;;;1.73;;
61960;SDS011;47923;42.506;24.192;2023-03-11T08:18:30;4.88;;;2.15;;
61960;SDS011;47923;42.506;24.192;2023-03-11T08:20:56;2.53;;;1.08;;
61960;SDS011;47923;42.506;24.192;2023-03-11T08:23:22;6.60;;;2.17;;
61960;SDS011;47923;42.506;24.192;2023-03-11T08:25:47;3.92;;;1.10;;
61960;SDS011;47923;42.506;24.192;2023-03-11T08:28:13;12.27;;;2.75;;
61960;SDS011;47923;42.506;24.192;2023-03-11T08:30:38;14.55;;;2.42;;
61960;SDS011;47923;42.506;24.192;2023-03-11T08:33:04;5.60;;;1.90;;
61960;SDS011;47923;42.506;24.192;2023-03-11T08:35:30;4.45;;;1.67;;
61960;SDS011;47923;42.506;24.192;2023-03-11T08:37:56;5.68;;;2.17;;
61960;SDS011;47923;42.506;24.192;2023-03-11T08:40:22;16.98;;;2.60;;
61960;SDS011;47923;42.506;24.192;2023-03-11T08:42:47;4.72;;;0.98;;
61960;SDS011;47923;42.506;24.192;2023-03-11T08:45:13;4.95;;;1.80;;
61960;SDS011;47923;42.506;24.192;2023-03-11T08:47:39;9.43;;;2.05;;
61960;SDS011;47923;42.506;24.192;2023-03-11T08:50:06;5.78;;;1.65;;
61960;SDS011;47923;42.506;24.192;2023-03-11T08:52:35;8.18;;;1.60;;
61960;SDS011;47923;42.506;24.192;2023-03-11T08:55:01;4.53;;;1.33;;
61960;SDS011;47923;42.506;24.192;2023-03-11T08:57:28;3.63;;;1.55;;
61960;SDS011;47923;42.506;24.192;2023-03-11T08:59:54;5.47;;;1.67;;
61960;SDS011;47923;42.506;24.192;2023-03-11T09:02:22;6.10;;;2.00;;
61960;SDS011;47923;42.506;24.192;2023-03-11T09:04:48;1.85;;;0.80;;
61960;SDS011;47923;42.506;24.192;2023-03-11T09:07:14;5.55;;;1.20;;
61960;SDS011;47923;42.506;24.192;2023-03-11T09:09:39;5.68;;;1.55;;
61960;SDS011;47923;42.506;24.192;2023-03-11T09:12:05;7.05;;;2.00;;
61960;SDS011;47923;42.506;24.192;2023-03-11T09:14:32;1.95;;;0.88;;
61960;SDS011;47923;42.506;24.192;2023-03-11T09:16:57;3.92;;;1.30;;
61960;SDS011;47923;42.506;24.192;2023-03-11T09:19:22;5.65;;;1.27;;
61960;SDS011;47923;42.506;24.192;2023-03-11T09:21:48;3.55;;;1.33;;
61960;SDS011;47923;42.506;24.192;2023-03-11T09:24:13;7.28;;;1.52;;
61960;SDS011;47923;42.506;24.192;2023-03-11T09:26:39;18.92;;;3.00;;
61960;SDS011;47923;42.506;24.192;2023-03-11T09:29:04;4.18;;;1.73;;
61960;SDS011;47923;42.506;24.192;2023-03-11T09:31:30;7.35;;;2.13;;
61960;SDS011;47923;42.506;24.192;2023-03-11T09:33:55;1.90;;;0.90;;
61960;SDS011;47923;42.506;24.192;2023-03-11T09:36:21;6.20;;;1.50;;
61960;SDS011;47923;42.506;24.192;2023-03-11T09:38:47;9.60;;;1.80;;
61960;SDS011;47923;42.506;24.192;2023-03-11T09:46:28;3.63;;;0.90;;
61960;SDS011;47923;42.506;24.192;2023-03-11T09:51:28;8.25;;;1.55;;
61960;SDS011;47923;42.506;24.192;2023-03-11T09:54:02;1.95;;;1.02;;
61960;SDS011;47923;42.506;24.192;2023-03-11T09:56:29;4.10;;;1.50;;
61960;SDS011;47923;42.506;24.192;2023-03-11T09:59:40;3.70;;;1.17;;
61960;SDS011;47923;42.506;24.192;2023-03-11T10:01:54;10.25;;;1.80;;
61960;SDS011;47923;42.506;24.192;2023-03-11T10:06:58;4.55;;;1.50;;
61960;SDS011;47923;42.506;24.192;2023-03-11T10:09:47;4.97;;;0.90;;
61960;SDS011;47923;42.506;24.192;2023-03-11T10:17:50;2.83;;;0.98;;
61960;SDS011;47923;42.506;24.192;2023-03-11T10:28:39;4.50;;;1.75;;
61960;SDS011;47923;42.506;24.192;2023-03-11T10:31:15;17.30;;;3.92;;
61960;SDS011;47923;42.506;24.192;2023-03-11T10:33:55;3.50;;;1.52;;
61960;SDS011;47923;42.506;24.192;2023-03-11T10:36:28;4.43;;;1.50;;
61960;SDS011;47923;42.506;24.192;2023-03-11T10:39:02;7.88;;;2.80;;
61960;SDS011;47923;42.506;24.192;2023-03-11T10:44:17;8.50;;;2.60;;
61960;SDS011;47923;42.506;24.192;2023-03-11T10:46:50;6.10;;;3.00;;
61960;SDS011;47923;42.506;24.192;2023-03-11T10:49:16;5.03;;;1.70;;
61960;SDS011;47923;42.506;24.192;2023-03-11T10:51:49;5.22;;;1.67;;
61960;SDS011;47923;42.506;24.192;2023-03-11T10:54:57;5.53;;;1.70;;
61960;SDS011;47923;42.506;24.192;2023-03-11T10:57:32;4.03;;;1.35;;
61960;SDS011;47923;42.506;24.192;2023-03-11T10:59:59;5.63;;;2.10;;
61960;SDS011;47923;42.506;24.192;2023-03-11T11:02:40;6.03;;;2.22;;
61960;SDS011;47923;42.506;24.192;2023-03-11T11:07:47;7.25;;;2.78;;
61960;SDS011;47923;42.506;24.192;2023-03-11T11:15:28;6.78;;;1.55;;
61960;SDS011;47923;42.506;24.192;2023-03-11T11:17:55;4.10;;;1.50;;
61960;SDS011;47923;42.506;24.192;2023-03-11T11:20:24;10.57;;;2.67;;
61960;SDS011;47923;42.506;24.192;2023-03-11T11:22:52;4.20;;;1.40;;
61960;SDS011;47923;42.506;24.192;2023-03-11T11:25:39;5.07;;;1.50;;
61960;SDS011;47923;42.506;24.192;2023-03-11T11:28:14;6.45;;;1.60;;
61960;SDS011;47923;42.506;24.192;2023-03-11T11:30:52;3.47;;;1.60;;
61960;SDS011;47923;42.506;24.192;2023-03-11T11:33:26;4.80;;;1.40;;
61960;SDS011;47923;42.506;24.192;2023-03-11T11:36:03;7.15;;;1.38;;
61960;SDS011;47923;42.506;24.192;2023-03-11T11:38:36;4.75;;;1.60;;
61960;SDS011;47923;42.506;24.192;2023-03-11T11:41:02;6.85;;;1.75;;
61960;SDS011;47923;42.506;24.192;2023-03-11T11:46:04;5.20;;;1.63;;
61960;SDS011;47923;42.506;24.192;2023-03-11T11:48:39;5.40;;;1.65;;
61960;SDS011;47923;42.506;24.192;2023-03-11T11:51:21;3.38;;;1.23;;
61960;SDS011;47923;42.506;24.192;2023-03-11T11:54:05;5.00;;;1.65;;
61960;SDS011;47923;42.506;24.192;2023-03-11T11:56:44;10.05;;;2.03;;
61960;SDS011;47923;42.506;24.192;2023-03-11T11:59:17;5.03;;;1.70;;
61960;SDS011;47923;42.506;24.192;2023-03-11T12:07:31;7.63;;;1.77;;
61960;SDS011;47923;42.506;24.192;2023-03-11T12:15:37;6.38;;;1.88;;
61960;SDS011;47923;42.506;24.192;2023-03-11T12:18:09;8.00;;;2.33;;
61960;SDS011;47923;42.506;24.192;2023-03-11T12:20:44;6.57;;;1.63;;
61960;SDS011;47923;42.506;24.192;2023-03-11T12:23:18;5.13;;;1.40;;
61960;SDS011;47923;42.506;24.192;2023-03-11T12:31:14;4.85;;;1.90;;
61960;SDS011;47923;42.506;24.192;2023-03-11T12:33:44;3.03;;;1.20;;
61960;SDS011;47923;42.506;24.192;2023-03-11T12:36:22;2.83;;;1.58;;
61960;SDS011;47923;42.506;24.192;2023-03-11T12:39:00;4.97;;;1.95;;
61960;SDS011;47923;42.506;24.192;2023-03-11T12:41:31;5.53;;;1.85;;
61960;SDS011;47923;42.506;24.192;2023-03-11T12:52:00;6.82;;;2.50;;
61960;SDS011;47923;42.506;24.192;2023-03-11T12:54:40;4.80;;;2.00;;
61960;SDS011;47923;42.506;24.192;2023-03-11T13:05:26;4.95;;;1.50;;
61960;SDS011;47923;42.506;24.192;2023-03-11T13:07:59;3.80;;;1.50;;
61960;SDS011;47923;42.506;24.192;2023-03-11T13:10:35;2.55;;;0.90;;
61960;SDS011;47923;42.506;24.192;2023-03-11T13:13:02;4.30;;;1.60;;
61960;SDS011;47923;42.506;24.192;2023-03-11T13:15:47;4.10;;;1.77;;
61960;SDS011;47923;42.506;24.192;2023-03-11T13:18:16;3.15;;;1.10;;
61960;SDS011;47923;42.506;24.192;2023-03-11T13:20:45;5.40;;;1.60;;
61960;SDS011;47923;42.506;24.192;2023-03-11T13:25:39;4.15;;;1.70;;
61960;SDS011;47923;42.506;24.192;2023-03-11T13:30:58;4.70;;;1.73;;
61960;SDS011;47923;42.506;24.192;2023-03-11T13:45:06;5.38;;;1.80;;
61960;SDS011;47923;42.506;24.192;2023-03-11T13:47:42;4.82;;;1.50;;
61960;SDS011;47923;42.506;24.192;2023-03-11T13:50:17;6.00;;;2.28;;
61960;SDS011;47923;42.506;24.192;2023-03-11T13:52:56;6.93;;;2.55;;
61960;SDS011;47923;42.506;24.192;2023-03-11T13:55:34;3.72;;;1.63;;
61960;SDS011;47923;42.506;24.192;2023-03-11T14:00:59;9.35;;;2.47;;
61960;SDS011;47923;42.506;24.192;2023-03-11T14:03:31;8.43;;;3.30;;
61960;SDS011;47923;42.506;24.192;2023-03-11T14:06:01;7.30;;;3.55;;
61960;SDS011;47923;42.506;24.192;2023-03-11T14:08:30;6.18;;;2.00;;
61960;SDS011;47923;42.506;24.192;2023-03-11T14:11:11;7.07;;;2.90;;
61960;SDS011;47923;42.506;24.192;2023-03-11T14:13:45;9.73;;;4.50;;
61960;SDS011;47923;42.506;24.192;2023-03-11T14:16:25;8.82;;;3.60;;
61960;SDS011;47923;42.506;24.192;2023-03-11T14:21:43;10.05;;;4.78;;
61960;SDS011;47923;42.506;24.192;2023-03-11T14:24:17;8.05;;;3.80;;
61960;SDS011;47923;42.506;24.192;2023-03-11T14:26:47;6.95;;;3.60;;
61960;SDS011;47923;42.506;24.192;2023-03-11T14:29:15;6.78;;;2.83;;
61960;SDS011;47923;42.506;24.192;2023-03-11T14:31:43;8.45;;;2.92;;
61960;SDS011;47923;42.506;24.192;2023-03-11T14:36:42;7.43;;;3.22;;
61960;SDS011;47923;42.506;24.192;2023-03-11T14:41:53;7.75;;;3.65;;
61960;SDS011;47923;42.506;24.192;2023-03-11T14:44:30;9.10;;;3.15;;
61960;SDS011;47923;42.506;24.192;2023-03-11T14:47:04;15.18;;;2.45;;
61960;SDS011;47923;42.506;24.192;2023-03-11T14:49:41;5.70;;;2.47;;
61960;SDS011;47923;42.506;24.192;2023-03-11T14:52:17;7.32;;;3.33;;
61960;SDS011;47923;42.506;24.192;2023-03-11T14:54:45;12.30;;;6.82;;
61960;SDS011;47923;42.506;24.192;2023-03-11T14:57:24;12.05;;;7.10;;
61960;SDS011;47923;42.506;24.192;2023-03-11T15:00:28;16.30;;;9.10;;
61960;SDS011;47923;42.506;24.192;2023-03-11T15:05:53;12.00;;;5.40;;
61960;SDS011;47923;42.506;24.192;2023-03-11T15:08:22;10.40;;;5.15;;
61960;SDS011;47923;42.506;24.192;2023-03-11T15:13:36;7.65;;;3.67;;
61960;SDS011;47923;42.506;24.192;2023-03-11T15:16:04;7.82;;;3.38;;
61960;SDS011;47923;42.506;24.192;2023-03-11T15:18:46;10.18;;;4.22;;
61960;SDS011;47923;42.506;24.192;2023-03-11T15:21:16;11.48;;;4.75;;
61960;SDS011;47923;42.506;24.192;2023-03-11T15:23:44;8.65;;;4.07;;
61960;SDS011;47923;42.506;24.192;2023-03-11T15:29:03;8.30;;;3.33;;
61960;SDS011;47923;42.506;24.192;2023-03-11T15:31:37;7.38;;;3.20;;
61960;SDS011;47923;42.506;24.192;2023-03-11T15:34:22;7.90;;;3.50;;
61960;SDS011;47923;42.506;24.192;2023-03-11T15:44:41;9.55;;;4.15;;
61960;SDS011;47923;42.506;24.192;2023-03-11T15:47:13;9.75;;;4.65;;
61960;SDS011;47923;42.506;24.192;2023-03-11T15:49:41;9.75;;;4.75;;
61960;SDS011;47923;42.506;24.192;2023-03-11T15:52:07;8.57;;;3.85;;
61960;SDS011;47923;42.506;24.192;2023-03-11T15:54:32;10.00;;;5.00;;
61960;SDS011;47923;42.506;24.192;2023-03-11T15:56:58;15.25;;;9.48;;
61960;SDS011;47923;42.506;24.192;2023-03-11T15:59:25;14.38;;;8.50;;
61960;SDS011;47923;42.506;24.192;2023-03-11T16:01:51;13.13;;;6.78;;
61960;SDS011;47923;42.506;24.192;2023-03-11T16:04:18;11.57;;;6.30;;
61960;SDS011;47923;42.506;24.192;2023-03-11T16:06:44;12.38;;;7.53;;
61960;SDS011;47923;42.506;24.192;2023-03-11T16:09:11;14.20;;;8.25;;
61960;SDS011;47923;42.506;24.192;2023-03-11T16:11:38;13.30;;;7.18;;
61960;SDS011;47923;42.506;24.192;2023-03-11T16:14:04;13.88;;;8.75;;
61960;SDS011;47923;42.506;24.192;2023-03-11T16:16:30;10.95;;;5.78;;
61960;SDS011;47923;42.506;24.192;2023-03-11T16:18:56;9.65;;;5.63;;
61960;SDS011;47923;42.506;24.192;2023-03-11T16:21:22;11.02;;;6.35;;
61960;SDS011;47923;42.506;24.192;2023-03-11T16:23:51;12.25;;;6.70;;
61960;SDS011;47923;42.506;24.192;2023-03-11T16:26:17;10.93;;;6.38;;
61960;SDS011;47923;42.506;24.192;2023-03-11T16:28:43;10.90;;;5.95;;
61960;SDS011;47923;42.506;24.192;2023-03-11T16:31:09;13.15;;;6.70;;
61960;SDS011;47923;42.506;24.192;2023-03-11T16:33:34;9.77;;;5.55;;